sensor_id;sensor_type;location;lat;lon;timestamp;temperature;humidity
22383;DHT22;11359;45.802;13.530;2022-08-27T00:01:16;28.10;46.80
22383;DHT22;11359;45.802;13.530;2022-08-27T00:03:43;28.10;46.80
22383;DHT22;11359;45.802;13.530;2022-08-27T00:06:12;28.10;46.90
22383;DHT22;11359;45.802;13.530;2022-08-27T00:08:39;28.10;47.60
22383;DHT22;11359;45.802;13.530;2022-08-27T00:11:05;28.00;46.90
22383;DHT22;11359;45.802;13.530;2022-08-27T00:13:31;28.00;46.90
22383;DHT22;11359;45.802;13.530;2022-08-27T00:15:57;28.00;47.00
22383;DHT22;11359;45.802;13.530;2022-08-27T00:18:23;28.00;47.00
22383;DHT22;11359;45.802;13.530;2022-08-27T00:20:49;27.90;47.10
22383;DHT22;11359;45.802;13.530;2022-08-27T00:23:15;28.00;47.20
22383;DHT22;11359;45.802;13.530;2022-08-27T00:25:41;27.90;47.10
22383;DHT22;11359;45.802;13.530;2022-08-27T00:28:07;27.90;47.20
22383;DHT22;11359;45.802;13.530;2022-08-27T00:30:33;27.90;47.20
22383;DHT22;11359;45.802;13.530;2022-08-27T00:32:58;27.90;47.20
22383;DHT22;11359;45.802;13.530;2022-08-27T00:35:24;27.90;47.30
22383;DHT22;11359;45.802;13.530;2022-08-27T00:37:51;27.90;47.40
22383;DHT22;11359;45.802;13.530;2022-08-27T00:40:19;27.80;47.40
22383;DHT22;11359;45.802;13.530;2022-08-27T00:42:45;27.80;47.40
22383;DHT22;11359;45.802;13.530;2022-08-27T00:45:13;27.80;47.50
22383;DHT22;11359;45.802;13.530;2022-08-27T00:47:44;27.80;47.50
22383;DHT22;11359;45.802;13.530;2022-08-27T00:50:14;27.80;47.60
22383;DHT22;11359;45.802;13.530;2022-08-27T00:52:56;27.70;47.50
22383;DHT22;11359;45.802;13.530;2022-08-27T00:55:26;27.70;47.50
22383;DHT22;11359;45.802;13.530;2022-08-27T00:58:27;27.70;47.60
22383;DHT22;11359;45.802;13.530;2022-08-27T01:00:54;27.70;47.60
22383;DHT22;11359;45.802;13.530;2022-08-27T01:03:21;27.60;48.20
22383;DHT22;11359;45.802;13.530;2022-08-27T01:05:48;27.60;47.60
22383;DHT22;11359;45.802;13.530;2022-08-27T01:08:20;27.60;47.70
22383;DHT22;11359;45.802;13.530;2022-08-27T01:10:48;27.50;47.70
22383;DHT22;11359;45.802;13.530;2022-08-27T01:13:17;27.50;47.80
22383;DHT22;11359;45.802;13.530;2022-08-27T01:15:43;27.50;47.80
22383;DHT22;11359;45.802;13.530;2022-08-27T01:18:09;27.50;47.80
22383;DHT22;11359;45.802;13.530;2022-08-27T01:23:39;27.40;47.90
22383;DHT22;11359;45.802;13.530;2022-08-27T01:26:08;27.40;48.00
22383;DHT22;11359;45.802;13.530;2022-08-27T01:28:37;27.40;48.10
22383;DHT22;11359;45.802;13.530;2022-08-27T01:31:05;27.30;48.20
22383;DHT22;11359;45.802;13.530;2022-08-27T01:33:32;27.30;48.20
22383;DHT22;11359;45.802;13.530;2022-08-27T01:35:58;27.30;48.30
22383;DHT22;11359;45.802;13.530;2022-08-27T01:38:24;27.30;48.30
22383;DHT22;11359;45.802;13.530;2022-08-27T01:40:52;27.20;48.20
22383;DHT22;11359;45.802;13.530;2022-08-27T01:43:19;27.20;48.30
22383;DHT22;11359;45.802;13.530;2022-08-27T01:45:49;27.20;48.50
22383;DHT22;11359;45.802;13.530;2022-08-27T01:48:17;27.20;48.50
22383;DHT22;11359;45.802;13.530;2022-08-27T01:50:44;27.20;48.60
22383;DHT22;11359;45.802;13.530;2022-08-27T01:53:18;27.20;48.60
22383;DHT22;11359;45.802;13.530;2022-08-27T01:55:46;27.10;48.70
22383;DHT22;11359;45.802;13.530;2022-08-27T01:58:12;27.10;48.80
22383;DHT22;11359;45.802;13.530;2022-08-27T02:00:40;27.20;48.90
22383;DHT22;11359;45.802;13.530;2022-08-27T02:03:09;27.10;48.90
22383;DHT22;11359;45.802;13.530;2022-08-27T02:05:35;27.10;48.90
22383;DHT22;11359;45.802;13.530;2022-08-27T02:08:01;27.10;48.90
22383;DHT22;11359;45.802;13.530;2022-08-27T02:10:33;27.10;48.90
22383;DHT22;11359;45.802;13.530;2022-08-27T02:12:59;27.10;49.00
22383;DHT22;11359;45.802;13.530;2022-08-27T02:15:26;27.10;49.00
22383;DHT22;11359;45.802;13.530;2022-08-27T02:17:52;27.10;49.10
22383;DHT22;11359;45.802;13.530;2022-08-27T02:20:19;27.10;49.10
22383;DHT22;11359;45.802;13.530;2022-08-27T02:22:45;27.10;49.10
22383;DHT22;11359;45.802;13.530;2022-08-27T02:25:12;27.10;49.10
22383;DHT22;11359;45.802;13.530;2022-08-27T02:27:39;27.10;49.10
22383;DHT22;11359;45.802;13.530;2022-08-27T02:30:07;27.10;49.10
22383;DHT22;11359;45.802;13.530;2022-08-27T02:32:34;27.10;49.20
22383;DHT22;11359;45.802;13.530;2022-08-27T02:35:00;27.10;49.10
22383;DHT22;11359;45.802;13.530;2022-08-27T02:37:26;27.10;49.20
22383;DHT22;11359;45.802;13.530;2022-08-27T02:39:53;27.10;49.20
22383;DHT22;11359;45.802;13.530;2022-08-27T02:42:18;27.10;49.20
22383;DHT22;11359;45.802;13.530;2022-08-27T02:44:44;27.10;49.30
22383;DHT22;11359;45.802;13.530;2022-08-27T02:47:10;27.10;49.30
22383;DHT22;11359;45.802;13.530;2022-08-27T02:49:36;27.00;49.20
22383;DHT22;11359;45.802;13.530;2022-08-27T02:52:03;27.00;49.20
22383;DHT22;11359;45.802;13.530;2022-08-27T02:54:29;27.00;49.30
22383;DHT22;11359;45.802;13.530;2022-08-27T02:56:55;27.00;49.30
22383;DHT22;11359;45.802;13.530;2022-08-27T02:59:21;27.00;49.30
22383;DHT22;11359;45.802;13.530;2022-08-27T03:01:47;27.00;49.40
22383;DHT22;11359;45.802;13.530;2022-08-27T03:04:13;27.00;49.40
22383;DHT22;11359;45.802;13.530;2022-08-27T03:06:39;26.90;49.30
22383;DHT22;11359;45.802;13.530;2022-08-27T03:09:05;27.00;49.40
22383;DHT22;11359;45.802;13.530;2022-08-27T03:11:31;26.90;49.40
22383;DHT22;11359;45.802;13.530;2022-08-27T03:13:58;26.90;49.40
22383;DHT22;11359;45.802;13.530;2022-08-27T03:16:24;26.90;49.50
22383;DHT22;11359;45.802;13.530;2022-08-27T03:18:50;26.90;49.60
22383;DHT22;11359;45.802;13.530;2022-08-27T03:21:22;26.90;49.60
22383;DHT22;11359;45.802;13.530;2022-08-27T03:23:49;26.90;49.70
22383;DHT22;11359;45.802;13.530;2022-08-27T03:26:16;26.90;49.70
22383;DHT22;11359;45.802;13.530;2022-08-27T03:28:42;26.90;49.70
22383;DHT22;11359;45.802;13.530;2022-08-27T03:31:14;26.90;49.70
22383;DHT22;11359;45.802;13.530;2022-08-27T03:33:40;26.90;49.70
22383;DHT22;11359;45.802;13.530;2022-08-27T03:36:08;26.90;49.70
22383;DHT22;11359;45.802;13.530;2022-08-27T03:38:35;26.90;49.80
22383;DHT22;11359;45.802;13.530;2022-08-27T03:41:04;26.80;49.80
22383;DHT22;11359;45.802;13.530;2022-08-27T03:43:30;26.80;49.90
22383;DHT22;11359;45.802;13.530;2022-08-27T03:45:56;26.80;49.80
22383;DHT22;11359;45.802;13.530;2022-08-27T03:48:22;26.80;49.90
22383;DHT22;11359;45.802;13.530;2022-08-27T03:50:49;26.80;49.90
22383;DHT22;11359;45.802;13.530;2022-08-27T03:53:16;26.80;49.90
22383;DHT22;11359;45.802;13.530;2022-08-27T03:55:43;26.80;49.90
22383;DHT22;11359;45.802;13.530;2022-08-27T03:58:10;26.80;50.00
22383;DHT22;11359;45.802;13.530;2022-08-27T04:00:37;26.80;50.00
22383;DHT22;11359;45.802;13.530;2022-08-27T04:03:04;26.80;50.00
22383;DHT22;11359;45.802;13.530;2022-08-27T04:05:31;26.80;50.10
22383;DHT22;11359;45.802;13.530;2022-08-27T04:07:57;26.80;50.10
22383;DHT22;11359;45.802;13.530;2022-08-27T04:10:22;26.80;50.20
22383;DHT22;11359;45.802;13.530;2022-08-27T04:12:48;26.80;50.20
22383;DHT22;11359;45.802;13.530;2022-08-27T04:15:14;26.70;50.20
22383;DHT22;11359;45.802;13.530;2022-08-27T04:17:40;26.80;50.30
22383;DHT22;11359;45.802;13.530;2022-08-27T04:20:06;26.70;50.20
22383;DHT22;11359;45.802;13.530;2022-08-27T04:22:32;26.70;50.20
22383;DHT22;11359;45.802;13.530;2022-08-27T04:24:59;26.70;50.20
22383;DHT22;11359;45.802;13.530;2022-08-27T04:27:25;26.70;50.90
22383;DHT22;11359;45.802;13.530;2022-08-27T04:29:56;26.70;50.20
22383;DHT22;11359;45.802;13.530;2022-08-27T04:32:23;26.70;50.20
22383;DHT22;11359;45.802;13.530;2022-08-27T04:34:53;26.70;50.30
22383;DHT22;11359;45.802;13.530;2022-08-27T04:37:19;26.70;50.30
22383;DHT22;11359;45.802;13.530;2022-08-27T04:39:44;26.70;50.40
22383;DHT22;11359;45.802;13.530;2022-08-27T04:42:10;26.70;50.40
22383;DHT22;11359;45.802;13.530;2022-08-27T04:44:36;26.60;50.50
22383;DHT22;11359;45.802;13.530;2022-08-27T04:47:03;26.60;50.50
22383;DHT22;11359;45.802;13.530;2022-08-27T04:49:30;26.70;50.60
22383;DHT22;11359;45.802;13.530;2022-08-27T04:51:56;26.60;50.60
22383;DHT22;11359;45.802;13.530;2022-08-27T04:54:22;26.60;50.60
22383;DHT22;11359;45.802;13.530;2022-08-27T04:56:48;26.60;50.60
22383;DHT22;11359;45.802;13.530;2022-08-27T04:59:14;26.70;50.70
22383;DHT22;11359;45.802;13.530;2022-08-27T05:01:41;26.70;50.70
22383;DHT22;11359;45.802;13.530;2022-08-27T05:04:08;26.70;50.70
22383;DHT22;11359;45.802;13.530;2022-08-27T05:06:35;26.70;50.80
22383;DHT22;11359;45.802;13.530;2022-08-27T05:09:02;26.70;50.80
22383;DHT22;11359;45.802;13.530;2022-08-27T05:11:28;26.70;50.90
22383;DHT22;11359;45.802;13.530;2022-08-27T05:14:04;26.70;50.90
22383;DHT22;11359;45.802;13.530;2022-08-27T05:16:29;26.70;51.00
22383;DHT22;11359;45.802;13.530;2022-08-27T05:18:57;26.70;51.00
22383;DHT22;11359;45.802;13.530;2022-08-27T05:21:24;26.70;51.00
22383;DHT22;11359;45.802;13.530;2022-08-27T05:23:52;26.70;51.10
22383;DHT22;11359;45.802;13.530;2022-08-27T05:26:19;26.70;51.10
22383;DHT22;11359;45.802;13.530;2022-08-27T05:28:45;26.70;51.20
22383;DHT22;11359;45.802;13.530;2022-08-27T05:31:12;26.70;51.20
22383;DHT22;11359;45.802;13.530;2022-08-27T05:33:40;26.80;51.30
22383;DHT22;11359;45.802;13.530;2022-08-27T05:36:07;26.80;51.30
22383;DHT22;11359;45.802;13.530;2022-08-27T05:38:38;26.80;51.30
22383;DHT22;11359;45.802;13.530;2022-08-27T05:41:11;26.80;51.40
22383;DHT22;11359;45.802;13.530;2022-08-27T05:43:38;26.80;51.50
22383;DHT22;11359;45.802;13.530;2022-08-27T05:46:08;26.80;51.50
22383;DHT22;11359;45.802;13.530;2022-08-27T05:48:35;26.90;51.50
22383;DHT22;11359;45.802;13.530;2022-08-27T05:51:10;26.90;51.60
22383;DHT22;11359;45.802;13.530;2022-08-27T05:53:36;26.90;51.60
22383;DHT22;11359;45.802;13.530;2022-08-27T05:56:03;26.90;51.60
22383;DHT22;11359;45.802;13.530;2022-08-27T05:58:29;26.90;51.60
22383;DHT22;11359;45.802;13.530;2022-08-27T06:01:13;27.00;51.70
22383;DHT22;11359;45.802;13.530;2022-08-27T06:03:40;27.00;51.80
22383;DHT22;11359;45.802;13.530;2022-08-27T06:06:08;27.00;51.80
22383;DHT22;11359;45.802;13.530;2022-08-27T06:08:36;27.00;51.80
22383;DHT22;11359;45.802;13.530;2022-08-27T06:11:03;27.00;51.80
22383;DHT22;11359;45.802;13.530;2022-08-27T06:13:31;27.00;51.80
22383;DHT22;11359;45.802;13.530;2022-08-27T06:16:08;27.00;51.90
22383;DHT22;11359;45.802;13.530;2022-08-27T06:18:36;27.10;52.00
22383;DHT22;11359;45.802;13.530;2022-08-27T06:21:03;27.10;52.00
22383;DHT22;11359;45.802;13.530;2022-08-27T06:23:30;27.10;52.00
22383;DHT22;11359;45.802;13.530;2022-08-27T06:25:56;27.10;52.00
22383;DHT22;11359;45.802;13.530;2022-08-27T06:28:24;27.20;52.10
22383;DHT22;11359;45.802;13.530;2022-08-27T06:31:04;27.20;52.10
22383;DHT22;11359;45.802;13.530;2022-08-27T06:33:30;27.20;52.10
22383;DHT22;11359;45.802;13.530;2022-08-27T06:36:00;27.20;52.10
22383;DHT22;11359;45.802;13.530;2022-08-27T06:38:27;27.30;52.20
22383;DHT22;11359;45.802;13.530;2022-08-27T06:40:53;27.30;52.20
22383;DHT22;11359;45.802;13.530;2022-08-27T06:43:21;27.30;52.20
22383;DHT22;11359;45.802;13.530;2022-08-27T06:45:47;27.30;52.20
22383;DHT22;11359;45.802;13.530;2022-08-27T06:48:13;27.30;52.20
22383;DHT22;11359;45.802;13.530;2022-08-27T06:50:40;27.40;52.30
22383;DHT22;11359;45.802;13.530;2022-08-27T06:53:06;27.40;52.30
22383;DHT22;11359;45.802;13.530;2022-08-27T06:55:38;27.50;52.30
22383;DHT22;11359;45.802;13.530;2022-08-27T06:58:04;27.50;52.30
22383;DHT22;11359;45.802;13.530;2022-08-27T07:00:30;27.50;53.00
22383;DHT22;11359;45.802;13.530;2022-08-27T07:02:56;27.60;52.40
22383;DHT22;11359;45.802;13.530;2022-08-27T07:05:21;27.60;52.40
22383;DHT22;11359;45.802;13.530;2022-08-27T07:07:47;27.60;52.40
22383;DHT22;11359;45.802;13.530;2022-08-27T07:10:13;27.60;52.50
22383;DHT22;11359;45.802;13.530;2022-08-27T07:12:39;27.70;52.50
22383;DHT22;11359;45.802;13.530;2022-08-27T07:15:05;27.70;52.50
22383;DHT22;11359;45.802;13.530;2022-08-27T07:17:31;27.80;52.60
22383;DHT22;11359;45.802;13.530;2022-08-27T07:19:56;27.80;52.60
22383;DHT22;11359;45.802;13.530;2022-08-27T07:22:22;27.80;52.60
22383;DHT22;11359;45.802;13.530;2022-08-27T07:24:48;27.90;52.60
22383;DHT22;11359;45.802;13.530;2022-08-27T07:27:16;27.90;52.60
22383;DHT22;11359;45.802;13.530;2022-08-27T07:29:42;27.90;52.60
22383;DHT22;11359;45.802;13.530;2022-08-27T07:32:08;28.00;52.70
22383;DHT22;11359;45.802;13.530;2022-08-27T07:34:33;28.00;52.70
22383;DHT22;11359;45.802;13.530;2022-08-27T07:36:59;28.00;52.60
22383;DHT22;11359;45.802;13.530;2022-08-27T07:39:25;28.10;52.70
22383;DHT22;11359;45.802;13.530;2022-08-27T07:41:55;28.10;52.70
22383;DHT22;11359;45.802;13.530;2022-08-27T07:44:39;28.10;52.80
22383;DHT22;11359;45.802;13.530;2022-08-27T07:47:05;28.20;52.80
22383;DHT22;11359;45.802;13.530;2022-08-27T07:49:31;28.20;52.70
22383;DHT22;11359;45.802;13.530;2022-08-27T07:51:59;28.20;52.70
22383;DHT22;11359;45.802;13.530;2022-08-27T07:54:25;28.20;52.70
22383;DHT22;11359;45.802;13.530;2022-08-27T07:56:52;28.20;52.70
22383;DHT22;11359;45.802;13.530;2022-08-27T07:59:18;28.30;52.70
22383;DHT22;11359;45.802;13.530;2022-08-27T08:01:44;28.30;52.70
22383;DHT22;11359;45.802;13.530;2022-08-27T08:04:10;28.30;52.70
22383;DHT22;11359;45.802;13.530;2022-08-27T08:06:39;28.30;52.70
22383;DHT22;11359;45.802;13.530;2022-08-27T08:09:05;28.40;52.70
22383;DHT22;11359;45.802;13.530;2022-08-27T08:11:32;28.40;52.70
22383;DHT22;11359;45.802;13.530;2022-08-27T08:13:58;28.40;52.70
22383;DHT22;11359;45.802;13.530;2022-08-27T08:16:25;28.50;52.70
22383;DHT22;11359;45.802;13.530;2022-08-27T08:18:51;28.50;52.60
22383;DHT22;11359;45.802;13.530;2022-08-27T08:21:17;28.50;52.60
22383;DHT22;11359;45.802;13.530;2022-08-27T08:23:43;28.50;52.60
22383;DHT22;11359;45.802;13.530;2022-08-27T08:26:10;28.50;52.60
22383;DHT22;11359;45.802;13.530;2022-08-27T08:28:37;28.60;52.70
22383;DHT22;11359;45.802;13.530;2022-08-27T08:31:04;28.60;52.70
22383;DHT22;11359;45.802;13.530;2022-08-27T08:33:30;28.60;52.70
22383;DHT22;11359;45.802;13.530;2022-08-27T08:36:11;28.60;52.60
22383;DHT22;11359;45.802;13.530;2022-08-27T08:38:37;28.70;52.70
22383;DHT22;11359;45.802;13.530;2022-08-27T08:41:05;28.70;52.60
22383;DHT22;11359;45.802;13.530;2022-08-27T08:43:37;28.80;52.70
22383;DHT22;11359;45.802;13.530;2022-08-27T08:46:42;28.80;52.60
22383;DHT22;11359;45.802;13.530;2022-08-27T08:49:31;28.80;53.20
22383;DHT22;11359;45.802;13.530;2022-08-27T08:52:15;28.90;52.60
22383;DHT22;11359;45.802;13.530;2022-08-27T08:54:43;28.90;52.60
22383;DHT22;11359;45.802;13.530;2022-08-27T08:57:32;28.90;52.50
22383;DHT22;11359;45.802;13.530;2022-08-27T09:00:04;28.90;52.50
22383;DHT22;11359;45.802;13.530;2022-08-27T09:02:31;29.00;52.50
22383;DHT22;11359;45.802;13.530;2022-08-27T09:05:04;29.00;52.50
22383;DHT22;11359;45.802;13.530;2022-08-27T09:12:29;29.10;52.30
22383;DHT22;11359;45.802;13.530;2022-08-27T09:18:05;29.10;52.30
22383;DHT22;11359;45.802;13.530;2022-08-27T09:20:31;29.10;52.30
22383;DHT22;11359;45.802;13.530;2022-08-27T09:25:47;29.20;52.20
22383;DHT22;11359;45.802;13.530;2022-08-27T09:28:31;29.20;52.10
22383;DHT22;11359;45.802;13.530;2022-08-27T09:31:18;29.30;52.00
22383;DHT22;11359;45.802;13.530;2022-08-27T09:33:46;29.30;51.90
22383;DHT22;11359;45.802;13.530;2022-08-27T09:36:16;29.40;51.80
22383;DHT22;11359;45.802;13.530;2022-08-27T09:38:57;29.40;51.70
22383;DHT22;11359;45.802;13.530;2022-08-27T09:41:30;29.50;51.50
22383;DHT22;11359;45.802;13.530;2022-08-27T09:44:02;29.50;51.40
22383;DHT22;11359;45.802;13.530;2022-08-27T09:46:31;29.50;51.30
22383;DHT22;11359;45.802;13.530;2022-08-27T09:49:11;29.60;51.30
22383;DHT22;11359;45.802;13.530;2022-08-27T09:51:40;29.60;51.20
22383;DHT22;11359;45.802;13.530;2022-08-27T09:54:06;29.60;51.10
22383;DHT22;11359;45.802;13.530;2022-08-27T09:56:46;29.70;51.20
22383;DHT22;11359;45.802;13.530;2022-08-27T09:59:23;29.70;51.10
22383;DHT22;11359;45.802;13.530;2022-08-27T10:02:04;29.70;50.80
22383;DHT22;11359;45.802;13.530;2022-08-27T10:04:41;29.80;50.90
22383;DHT22;11359;45.802;13.530;2022-08-27T10:15:13;29.90;50.40
22383;DHT22;11359;45.802;13.530;2022-08-27T10:18:14;29.90;50.30
22383;DHT22;11359;45.802;13.530;2022-08-27T10:21:14;30.00;50.40
22383;DHT22;11359;45.802;13.530;2022-08-27T10:29:54;30.10;50.10
22383;DHT22;11359;45.802;13.530;2022-08-27T10:35:25;30.20;49.90
22383;DHT22;11359;45.802;13.530;2022-08-27T10:38:19;30.20;49.90
22383;DHT22;11359;45.802;13.530;2022-08-27T10:49:00;30.30;49.70
22383;DHT22;11359;45.802;13.530;2022-08-27T10:54:40;30.40;49.60
22383;DHT22;11359;45.802;13.530;2022-08-27T11:00:04;30.50;49.60
22383;DHT22;11359;45.802;13.530;2022-08-27T11:03:14;30.50;49.30
22383;DHT22;11359;45.802;13.530;2022-08-27T11:05:44;30.50;49.10
22383;DHT22;11359;45.802;13.530;2022-08-27T11:08:40;30.60;49.10
22383;DHT22;11359;45.802;13.530;2022-08-27T11:11:12;30.60;49.00
22383;DHT22;11359;45.802;13.530;2022-08-27T11:13:45;30.60;48.90
22383;DHT22;11359;45.802;13.530;2022-08-27T11:16:25;30.60;48.90
22383;DHT22;11359;45.802;13.530;2022-08-27T11:18:57;30.70;48.90
22383;DHT22;11359;45.802;13.530;2022-08-27T11:24:46;30.70;48.90
22383;DHT22;11359;45.802;13.530;2022-08-27T11:27:16;30.80;48.90
22383;DHT22;11359;45.802;13.530;2022-08-27T11:30:07;30.80;48.80
22383;DHT22;11359;45.802;13.530;2022-08-27T11:35:17;30.90;49.00
22383;DHT22;11359;45.802;13.530;2022-08-27T11:40:37;30.90;48.60
22383;DHT22;11359;45.802;13.530;2022-08-27T11:43:14;31.00;48.60
22383;DHT22;11359;45.802;13.530;2022-08-27T11:46:00;31.00;48.60
22383;DHT22;11359;45.802;13.530;2022-08-27T11:48:35;31.00;48.50
22383;DHT22;11359;45.802;13.530;2022-08-27T11:51:12;31.10;48.40
22383;DHT22;11359;45.802;13.530;2022-08-27T11:53:43;31.00;48.30
22383;DHT22;11359;45.802;13.530;2022-08-27T11:56:33;31.10;48.40
22383;DHT22;11359;45.802;13.530;2022-08-27T12:01:37;31.10;48.00
22383;DHT22;11359;45.802;13.530;2022-08-27T12:09:24;31.30;48.10
22383;DHT22;11359;45.802;13.530;2022-08-27T12:25:29;31.60;47.40
22383;DHT22;11359;45.802;13.530;2022-08-27T12:27:58;31.60;47.40
22383;DHT22;11359;45.802;13.530;2022-08-27T12:30:31;31.60;47.30
22383;DHT22;11359;45.802;13.530;2022-08-27T12:33:03;31.70;47.40
22383;DHT22;11359;45.802;13.530;2022-08-27T12:35:39;31.70;47.30
22383;DHT22;11359;45.802;13.530;2022-08-27T12:38:11;31.70;47.30
22383;DHT22;11359;45.802;13.530;2022-08-27T12:40:45;31.80;47.40
22383;DHT22;11359;45.802;13.530;2022-08-27T12:43:13;31.80;47.30
22383;DHT22;11359;45.802;13.530;2022-08-27T12:45:49;31.90;47.40
22383;DHT22;11359;45.802;13.530;2022-08-27T12:48:32;31.90;47.40
22383;DHT22;11359;45.802;13.530;2022-08-27T12:51:23;32.00;47.60
22383;DHT22;11359;45.802;13.530;2022-08-27T13:04:51;32.10;47.80
22383;DHT22;11359;45.802;13.530;2022-08-27T13:07:30;32.20;47.80
22383;DHT22;11359;45.802;13.530;2022-08-27T13:13:05;32.20;47.70
22383;DHT22;11359;45.802;13.530;2022-08-27T13:15:31;32.20;47.70
22383;DHT22;11359;45.802;13.530;2022-08-27T13:18:01;32.30;47.80
22383;DHT22;11359;45.802;13.530;2022-08-27T13:20:27;32.30;47.90
22383;DHT22;11359;45.802;13.530;2022-08-27T13:22:53;32.40;48.00
22383;DHT22;11359;45.802;13.530;2022-08-27T13:25:33;32.40;47.90
22383;DHT22;11359;45.802;13.530;2022-08-27T13:28:06;32.40;47.80
22383;DHT22;11359;45.802;13.530;2022-08-27T13:30:38;32.50;48.40
22383;DHT22;11359;45.802;13.530;2022-08-27T13:33:06;32.40;47.40
22383;DHT22;11359;45.802;13.530;2022-08-27T13:35:33;32.30;47.20
22383;DHT22;11359;45.802;13.530;2022-08-27T13:38:00;32.30;47.10
22383;DHT22;11359;45.802;13.530;2022-08-27T13:40:32;32.30;47.10
22383;DHT22;11359;45.802;13.530;2022-08-27T13:43:06;32.20;47.00
22383;DHT22;11359;45.802;13.530;2022-08-27T13:45:33;32.10;47.00
22383;DHT22;11359;45.802;13.530;2022-08-27T13:48:01;32.10;46.90
22383;DHT22;11359;45.802;13.530;2022-08-27T13:50:29;32.00;46.90
22383;DHT22;11359;45.802;13.530;2022-08-27T13:53:11;32.00;46.90
22383;DHT22;11359;45.802;13.530;2022-08-27T13:56:02;31.90;47.10
22383;DHT22;11359;45.802;13.530;2022-08-27T13:58:31;31.80;47.20
22383;DHT22;11359;45.802;13.530;2022-08-27T14:01:15;31.80;47.50
22383;DHT22;11359;45.802;13.530;2022-08-27T14:03:54;31.70;47.60
22383;DHT22;11359;45.802;13.530;2022-08-27T14:06:42;31.70;47.80
22383;DHT22;11359;45.802;13.530;2022-08-27T14:09:23;31.60;47.90
22383;DHT22;11359;45.802;13.530;2022-08-27T14:12:01;31.50;48.00
22383;DHT22;11359;45.802;13.530;2022-08-27T14:14:29;31.50;48.00
22383;DHT22;11359;45.802;13.530;2022-08-27T14:17:00;31.50;48.20
22383;DHT22;11359;45.802;13.530;2022-08-27T14:19:32;31.50;48.40
22383;DHT22;11359;45.802;13.530;2022-08-27T14:21:58;31.40;48.60
22383;DHT22;11359;45.802;13.530;2022-08-27T14:24:26;31.50;49.40
22383;DHT22;11359;45.802;13.530;2022-08-27T14:26:54;31.50;50.10
22383;DHT22;11359;45.802;13.530;2022-08-27T14:29:26;31.60;50.10
22383;DHT22;11359;45.802;13.530;2022-08-27T14:31:52;31.70;49.70
22383;DHT22;11359;45.802;13.530;2022-08-27T14:34:17;31.80;49.30
22383;DHT22;11359;45.802;13.530;2022-08-27T14:36:43;31.80;49.00
22383;DHT22;11359;45.802;13.530;2022-08-27T14:39:10;31.70;48.70
22383;DHT22;11359;45.802;13.530;2022-08-27T14:41:36;31.70;48.50
22383;DHT22;11359;45.802;13.530;2022-08-27T14:44:03;31.60;48.20
22383;DHT22;11359;45.802;13.530;2022-08-27T14:46:32;31.60;48.20
22383;DHT22;11359;45.802;13.530;2022-08-27T14:49:00;31.50;48.00
22383;DHT22;11359;45.802;13.530;2022-08-27T14:51:30;31.40;47.90
22383;DHT22;11359;45.802;13.530;2022-08-27T14:53:57;31.30;47.90
22383;DHT22;11359;45.802;13.530;2022-08-27T14:56:24;31.30;47.90
22383;DHT22;11359;45.802;13.530;2022-08-27T14:58:50;31.20;47.80
22383;DHT22;11359;45.802;13.530;2022-08-27T15:01:20;31.10;47.70
22383;DHT22;11359;45.802;13.530;2022-08-27T15:03:47;31.10;47.70
22383;DHT22;11359;45.802;13.530;2022-08-27T15:06:15;31.00;47.60
22383;DHT22;11359;45.802;13.530;2022-08-27T15:08:41;30.90;47.60
22383;DHT22;11359;45.802;13.530;2022-08-27T15:11:14;30.90;48.20
22383;DHT22;11359;45.802;13.530;2022-08-27T15:13:40;30.90;47.50
22383;DHT22;11359;45.802;13.530;2022-08-27T15:16:06;30.80;47.40
22383;DHT22;11359;45.802;13.530;2022-08-27T15:18:32;30.70;47.30
22383;DHT22;11359;45.802;13.530;2022-08-27T15:20:58;30.70;47.30
22383;DHT22;11359;45.802;13.530;2022-08-27T15:23:24;30.70;47.30
22383;DHT22;11359;45.802;13.530;2022-08-27T15:25:50;30.60;47.30
22383;DHT22;11359;45.802;13.530;2022-08-27T15:28:16;30.50;47.30
22383;DHT22;11359;45.802;13.530;2022-08-27T15:30:41;30.50;47.30
22383;DHT22;11359;45.802;13.530;2022-08-27T15:33:07;30.50;46.70
22383;DHT22;11359;45.802;13.530;2022-08-27T15:35:33;30.40;46.60
22383;DHT22;11359;45.802;13.530;2022-08-27T15:37:59;30.30;46.50
22383;DHT22;11359;45.802;13.530;2022-08-27T15:40:27;30.20;46.50
22383;DHT22;11359;45.802;13.530;2022-08-27T15:42:58;30.10;46.40
22383;DHT22;11359;45.802;13.530;2022-08-27T15:45:25;30.00;46.40
22383;DHT22;11359;45.802;13.530;2022-08-27T15:47:51;29.90;46.40
22383;DHT22;11359;45.802;13.530;2022-08-27T15:50:17;29.70;46.40
22383;DHT22;11359;45.802;13.530;2022-08-27T15:52:43;29.60;46.70
22383;DHT22;11359;45.802;13.530;2022-08-27T15:55:25;29.50;46.80
22383;DHT22;11359;45.802;13.530;2022-08-27T15:57:51;29.40;47.00
22383;DHT22;11359;45.802;13.530;2022-08-27T16:00:19;29.30;47.20
22383;DHT22;11359;45.802;13.530;2022-08-27T16:02:46;29.20;47.60
22383;DHT22;11359;45.802;13.530;2022-08-27T16:05:14;29.10;47.60
22383;DHT22;11359;45.802;13.530;2022-08-27T16:07:41;29.00;48.50
22383;DHT22;11359;45.802;13.530;2022-08-27T16:10:08;28.90;48.10
22383;DHT22;11359;45.802;13.530;2022-08-27T16:12:34;28.80;48.20
22383;DHT22;11359;45.802;13.530;2022-08-27T16:15:00;28.80;48.40
22383;DHT22;11359;45.802;13.530;2022-08-27T16:17:26;28.70;48.40
22383;DHT22;11359;45.802;13.530;2022-08-27T16:19:52;28.70;48.60
22383;DHT22;11359;45.802;13.530;2022-08-27T16:22:18;28.70;48.70
22383;DHT22;11359;45.802;13.530;2022-08-27T16:24:44;28.60;48.90
22383;DHT22;11359;45.802;13.530;2022-08-27T16:27:10;28.60;49.00
22383;DHT22;11359;45.802;13.530;2022-08-27T16:29:36;28.60;49.10
22383;DHT22;11359;45.802;13.530;2022-08-27T16:32:02;28.60;49.30
22383;DHT22;11359;45.802;13.530;2022-08-27T16:34:28;28.50;50.00
22383;DHT22;11359;45.802;13.530;2022-08-27T16:36:54;28.50;49.50
22383;DHT22;11359;45.802;13.530;2022-08-27T16:39:20;28.50;49.50
22383;DHT22;11359;45.802;13.530;2022-08-27T16:41:46;28.40;49.50
22383;DHT22;11359;45.802;13.530;2022-08-27T16:44:13;28.40;49.60
22383;DHT22;11359;45.802;13.530;2022-08-27T16:46:39;28.40;49.70
22383;DHT22;11359;45.802;13.530;2022-08-27T16:49:04;28.40;49.70
22383;DHT22;11359;45.802;13.530;2022-08-27T16:51:59;28.40;49.80
22383;DHT22;11359;45.802;13.530;2022-08-27T16:54:26;28.40;49.80
22383;DHT22;11359;45.802;13.530;2022-08-27T16:56:52;28.50;49.90
22383;DHT22;11359;45.802;13.530;2022-08-27T16:59:17;28.50;49.80